AGGH/HIR METAR and TAF weather

Enter ICAO airport designator
Station Type Date Time Source
AGGH METAR 2024/06/16 09:00 UTC NOAA

AGGH 160900Z 18003KT 9999 FEW015 FEW016CB BKN300 27/26 Q1011


Station Type Date Time Source
AGGH Decoded METAR 2024/06/16 09:00 UTC NOAA

Honiara / Henderson, Solomon Islands (AGGH) 09-25S 160-03E 9M
Jun 16, 2024 - 05:00 AM EDT / 2024.06.16 0900 UTC
Wind: from the S (180 degrees) at 3 MPH (3 KT):0
Visibility: greater than 7 mile(s):0
Sky conditions: mostly cloudy
Weather: Cumulonimbus clouds observed
Temperature: 80 F (27 C)
Dew Point: 78 F (26 C)
Relative Humidity: 94%
Pressure (altimeter): 29.85 in. Hg (1011 hPa)
ob: AGGH 160900Z 18003KT 9999 FEW015 FEW016CB BKN300 27/26 Q1011
cycle: 9

Station Type Date Time Source
AGGH TAF 2024/06/16 09:39 UTC NOAA